• Join FlightAware (Why Join?)
  • Login
  • US Flag 
11:52AM EST


 

Airport Tracker/Info


-or-


 

Live Flight TrackerFlight Track Log ✈ SKW7367 ✈ 25-Sep-2013 ✈ KDTW - KAPN

Flight Track Log - Related Links

Times and Time Zones

All times are in EDT time to prevent confusion due to time zone crossing. See the SKW7367 flight status page for this flight to view local times or setup timezone preferences in your user account.

Time Position Orientation Groundspeed Altitude Reporting Facility
EDT Latitude Longitude Course Direction KTS MPH feet Rate Location/Type
04:08PM 42.2058 -83.3700 225° Southwest 153 176 1,300  Level Cleveland Center
04:08PM 42.1964 -83.3828 225° Southwest 166 191 1,900 1,980 Climbing Cleveland Center
04:09PM 42.1581 -83.4447 230° Southwest 243 280 4,000 2,100 Climbing Cleveland Center
04:10PM 42.1394 -83.4828 237° Southwest 247 284 5,200 3,000 Climbing Cleveland Center
04:10PM 42.1486 -83.5392 282° West 287 330 7,000 2,880 Climbing Cleveland Center
04:11PM 42.1614 -83.5744 296° West 294 338 8,200 2,940 Climbing Cleveland Center
04:11PM 42.2028 -83.6203 321° Northwest 298 343 10,000 2,760 Climbing Cleveland Center
04:12PM 42.2264 -83.6447 323° Northwest 304 350 11,100 2,220 Climbing Cleveland Center
04:12PM 42.2706 -83.6894 323° Northwest 317 365 12,300 1,620 Climbing Cleveland Center
04:13PM 42.3050 -83.6925 356° North 328 377 12,800 1,500 Climbing Cleveland Center
04:14PM 42.3878 -83.6444 23° Northeast 319 367 14,700 1,020 Climbing Cleveland Center
04:15PM 42.4928 -83.5886 21° North 333 383 15,000 120 Climbing Cleveland Center
04:16PM 42.5831 -83.5397 22° Northeast 345 397 15,000  Level Cleveland Center
04:17PM 42.6725 -83.4928 21° North 344 396 15,000  Level Cleveland Center
04:18PM 42.7558 -83.4478 22° Northeast 327 376 15,000  Level Cleveland Center
04:19PM 42.8392 -83.4031 21° North 321 369 15,000  Level Cleveland Center
04:20PM 42.9244 -83.3625 19° North 323 372 15,000  Level Cleveland Center
04:21PM 43.0178 -83.3728 355° North 335 386 15,100  Climbing Cleveland Center
04:22PM 43.1258 -83.3817 357° North 325 374 15,100  Level Cleveland Center
04:23PM 43.2172 -83.3897 356° North 328 377 15,100  Level Cleveland Center
04:24PM 43.3072 -83.3950 358° North 325 374 15,100  Level Cleveland Center
04:25PM 43.3989 -83.4033 356° North 328 377 15,100 -60 Level Cleveland Center
04:26PM 43.4917 -83.4114 356° North 333 383 15,000 -60 Descending Cleveland Center
04:27PM 43.6036 -83.4211 356° North 335 386 15,000  Level Cleveland Center
04:28PM 43.6450 -83.4261 355° North 335 386 15,000  Level Minneapolis Center
04:29PM 43.7389 -83.4353 356° North 335 386 15,000  Level Minneapolis Center
04:30PM 43.8308 -83.4433 356° North 333 383 15,000  Level Minneapolis Center
04:31PM 43.9411 -83.4533 356° North 336 387 15,000  Level Minneapolis Center
04:32PM 44.0325 -83.4625 356° North 334 384 15,000  Level Minneapolis Center
04:33PM 44.1311 -83.4706 357° North 331 381 15,000 -120 Level Minneapolis Center
04:34PM 44.2228 -83.4786 356° North 335 386 14,800 -840 Descending Minneapolis Center
04:35PM 44.3194 -83.4872 356° North 328 377 13,300 -1,440 Descending Minneapolis Center
04:36PM 44.4061 -83.4961 356° North 317 365 11,900 -1,380 Descending Minneapolis Center
04:37PM 44.4931 -83.5044 356° North 297 342 10,500 -1,260 Descending Minneapolis Center
04:38PM 44.5728 -83.5117 356° North 292 336 9,400 -1,080 Descending Minneapolis Center
04:39PM 44.6572 -83.5200 356° North 285 328 8,300 -1,080 Descending Minneapolis Center
04:40PM 44.7386 -83.5281 356° North 277 319 7,200 -1,200 Descending Minneapolis Center
04:41PM 44.8131 -83.5344 357° North 273 314 5,900 -960 Descending Minneapolis Center
04:42PM 44.8828 -83.5350 360° North 231 266 5,300 -780 Descending Minneapolis Center
04:43PM 44.9414 -83.5264 North 214 246 4,300 -960 Descending Minneapolis Center
04:44PM 45.0047 -83.5167 North 215 247 3,400 -840 Descending Minneapolis Center
04:45PM 45.0594 -83.5006 12° North 210 242 2,600 -480 Descending Minneapolis Center
04:46PM 45.1153 -83.4925 North 192 221 2,500 -300 Descending Minneapolis Center
04:47PM 45.1342 -83.5519 294° West 178 205 2,100 -780 Descending Minneapolis Center
04:48PM 45.0978 -83.5608 190° South 139 160 900 -1,200 Descending Minneapolis Center